createdAt,value
2019-05-26T00:00:40.935Z,91.90
2019-05-26T00:03:09.942Z,92.00
2019-05-26T00:05:38.674Z,92.30
2019-05-26T00:08:07.551Z,92.40
2019-05-26T00:10:36.615Z,92.60
2019-05-26T00:13:05.342Z,92.80
2019-05-26T00:15:34.163Z,93.10
2019-05-26T00:18:04.067Z,93.30
2019-05-26T00:20:32.764Z,93.40
2019-05-26T00:23:01.550Z,93.70
2019-05-26T00:25:30.315Z,93.90
2019-05-26T00:27:59.249Z,94.00
2019-05-26T00:30:28.216Z,94.20
2019-05-26T00:32:56.918Z,94.20
2019-05-26T00:35:26.111Z,94.30
2019-05-26T00:37:55.347Z,94.40
2019-05-26T00:40:24.270Z,94.30
2019-05-26T00:42:53.573Z,94.20
2019-05-26T00:45:22.454Z,94.00
2019-05-26T00:47:51.420Z,94.00
2019-05-26T00:50:20.678Z,94.00
2019-05-26T00:52:49.614Z,94.20
2019-05-26T00:55:18.467Z,94.30
2019-05-26T00:57:47.402Z,94.30
2019-05-26T01:00:20.583Z,94.50
2019-05-26T01:02:50.600Z,94.80
2019-05-26T01:05:19.579Z,95.00
2019-05-26T01:08:04.949Z,95.00
2019-05-26T01:10:19.236Z,95.20
2019-05-26T01:12:48.035Z,95.40
2019-05-26T01:15:17.289Z,95.50
2019-05-26T01:17:47.418Z,95.70
2019-05-26T01:20:16.483Z,95.90
2019-05-26T01:22:45.323Z,96.00
2019-05-26T01:25:14.464Z,96.10
2019-05-26T01:27:43.146Z,96.20
2019-05-26T01:30:12.202Z,96.20
2019-05-26T01:32:41.146Z,96.40
2019-05-26T01:35:10.102Z,96.40
2019-05-26T01:37:39.686Z,96.40
2019-05-26T01:40:08.844Z,96.50
2019-05-26T01:42:37.598Z,96.50
2019-05-26T01:45:07.015Z,96.60
2019-05-26T01:47:35.686Z,96.60
2019-05-26T01:50:04.868Z,96.70
2019-05-26T01:52:33.679Z,96.80
2019-05-26T01:55:02.460Z,96.70
2019-05-26T01:57:31.153Z,96.80
2019-05-26T01:59:59.942Z,96.80
2019-05-26T02:02:28.815Z,96.80
2019-05-26T02:04:58.645Z,96.80
2019-05-26T02:07:27.368Z,96.90
2019-05-26T02:09:56.334Z,97.00
2019-05-26T02:12:25.644Z,97.10
2019-05-26T02:14:54.736Z,97.00
2019-05-26T02:17:23.528Z,97.10
2019-05-26T02:19:52.666Z,97.10
2019-05-26T02:22:21.437Z,97.20
2019-05-26T02:24:50.224Z,97.20
2019-05-26T02:27:18.974Z,97.60
2019-05-26T02:29:47.796Z,97.20
2019-05-26T02:32:17.036Z,97.40
2019-05-26T02:34:46.110Z,97.40
2019-05-26T02:37:14.947Z,97.40
2019-05-26T02:39:43.994Z,97.40
2019-05-26T02:42:14.080Z,97.40
2019-05-26T02:44:43.100Z,97.40
2019-05-26T02:47:11.940Z,97.50
2019-05-26T02:49:40.951Z,97.50
2019-05-26T02:52:09.718Z,97.50
2019-05-26T02:54:38.519Z,97.60
2019-05-26T02:57:07.298Z,98.00
2019-05-26T02:59:36.243Z,97.70
2019-05-26T03:02:05.150Z,97.70
2019-05-26T03:04:34.060Z,97.80
2019-05-26T03:07:03.292Z,97.80
2019-05-26T03:09:34.432Z,97.80
2019-05-26T03:12:04.146Z,97.70
2019-05-26T03:14:34.716Z,97.70
2019-05-26T03:17:03.983Z,97.70
2019-05-26T03:19:35.422Z,97.70
2019-05-26T03:22:04.730Z,97.50
2019-05-26T03:24:34.121Z,97.40
2019-05-26T03:27:03.156Z,97.50
2019-05-26T03:29:31.965Z,97.40
2019-05-26T03:32:00.694Z,97.30
2019-05-26T03:34:29.461Z,97.20
2019-05-26T03:36:58.190Z,97.10
2019-05-26T03:39:43.693Z,96.80
2019-05-26T03:41:57.563Z,96.70
2019-05-26T03:44:26.393Z,96.60
2019-05-26T03:46:55.417Z,96.30
2019-05-26T03:49:24.111Z,96.30
2019-05-26T03:51:53.029Z,96.10
2019-05-26T03:54:21.720Z,96.00
2019-05-26T03:56:50.403Z,95.80
2019-05-26T03:59:19.259Z,95.60
2019-05-26T04:01:48.209Z,95.60
2019-05-26T04:04:17.209Z,95.40
2019-05-26T04:06:46.163Z,95.30
2019-05-26T04:09:15.875Z,95.30
2019-05-26T04:11:44.931Z,95.00
2019-05-26T04:14:14.046Z,94.80
2019-05-26T04:16:45.416Z,94.50
2019-05-26T04:19:13.883Z,94.30
2019-05-26T04:21:42.786Z,93.90
2019-05-26T04:24:12.003Z,93.40
2019-05-26T04:26:40.765Z,92.80
2019-05-26T04:29:09.667Z,92.60
2019-05-26T04:31:38.956Z,92.40
2019-05-26T04:34:07.961Z,92.30
2019-05-26T04:36:37.053Z,92.00
2019-05-26T04:39:07.085Z,91.70
2019-05-26T04:41:35.953Z,91.50
2019-05-26T04:44:05.033Z,91.30
2019-05-26T04:46:35.546Z,91.00
2019-05-26T04:49:04.355Z,90.60
2019-05-26T04:51:33.220Z,90.10
2019-05-26T04:54:01.985Z,89.70
2019-05-26T04:56:30.944Z,89.00
2019-05-26T04:59:00.061Z,88.10
2019-05-26T05:01:29.152Z,87.10
2019-05-26T05:03:58.068Z,85.40
2019-05-26T05:06:26.877Z,83.70
2019-05-26T05:08:55.822Z,81.70
2019-05-26T05:11:25.746Z,80.40
2019-05-26T05:13:54.814Z,79.80
2019-05-26T05:16:24.242Z,80.00
2019-05-26T05:18:53.203Z,80.20
2019-05-26T05:21:22.332Z,79.40
2019-05-26T05:23:51.346Z,77.90
2019-05-26T05:26:21.093Z,76.50
2019-05-26T05:28:50.168Z,73.70
2019-05-26T05:31:19.207Z,70.10
2019-05-26T05:33:48.061Z,66.70
2019-05-26T05:36:16.834Z,63.10
2019-05-26T05:38:45.775Z,62.10
2019-05-26T05:41:15.098Z,60.60
2019-05-26T05:43:43.850Z,60.00
2019-05-26T05:46:12.837Z,59.80
2019-05-26T05:48:42.049Z,60.10
2019-05-26T05:51:10.838Z,60.40
2019-05-26T05:53:39.636Z,60.80
2019-05-26T05:56:08.379Z,61.20
2019-05-26T05:58:37.215Z,60.90
2019-05-26T06:01:08.119Z,60.90
2019-05-26T06:03:36.845Z,61.40
2019-05-26T06:06:05.604Z,61.50
2019-05-26T06:08:36.185Z,61.60
2019-05-26T06:11:15.973Z,62.10
2019-05-26T06:13:36.225Z,62.40
2019-05-26T06:16:05.102Z,60.60
2019-05-26T06:18:34.055Z,60.20
2019-05-26T06:21:03.214Z,59.60
2019-05-26T06:23:32.168Z,58.40
2019-05-26T06:26:01.744Z,57.40
2019-05-26T06:28:31.882Z,57.40
2019-05-26T06:31:01.144Z,56.50
2019-05-26T06:33:30.359Z,55.40
2019-05-26T06:35:59.103Z,55.00
2019-05-26T06:38:27.851Z,54.10
2019-05-26T06:40:56.715Z,53.20
2019-05-26T06:43:25.431Z,52.40
2019-05-26T06:45:54.502Z,50.90
2019-05-26T06:48:26.789Z,50.40
2019-05-26T06:50:54.306Z,49.60
2019-05-26T06:53:23.007Z,47.70
2019-05-26T06:55:52.197Z,47.20
2019-05-26T06:58:21.065Z,45.90
2019-05-26T07:00:49.827Z,46.20
2019-05-26T07:03:20.923Z,46.50
2019-05-26T07:05:49.798Z,47.70
2019-05-26T07:08:18.511Z,46.70
2019-05-26T07:10:48.972Z,46.10
2019-05-26T07:13:17.704Z,44.90
2019-05-26T07:15:46.676Z,43.60
2019-05-26T07:18:15.608Z,43.40
2019-05-26T07:20:44.347Z,42.60
2019-05-26T07:23:13.662Z,43.60
2019-05-26T07:25:42.606Z,42.60
2019-05-26T07:28:11.402Z,42.20
2019-05-26T07:30:40.083Z,42.10
2019-05-26T07:33:08.875Z,41.70
2019-05-26T07:35:37.574Z,42.30
2019-05-26T07:38:06.463Z,43.30
2019-05-26T07:40:35.299Z,44.10
2019-05-26T07:43:04.142Z,44.40
2019-05-26T07:45:33.170Z,44.20
2019-05-26T07:48:02.067Z,45.00
2019-05-26T07:50:31.039Z,45.40
2019-05-26T07:53:00.003Z,45.20
2019-05-26T07:55:28.779Z,45.20
2019-05-26T07:57:57.519Z,44.50
2019-05-26T08:00:26.351Z,43.70
2019-05-26T08:02:55.085Z,44.60
2019-05-26T08:05:23.759Z,45.50
2019-05-26T08:07:52.466Z,45.40
2019-05-26T08:10:21.463Z,45.80
2019-05-26T08:12:50.181Z,45.20
2019-05-26T08:15:19.753Z,44.70
2019-05-26T08:17:48.884Z,45.70
2019-05-26T08:20:17.903Z,46.50
2019-05-26T08:22:46.666Z,46.80
2019-05-26T08:25:15.735Z,46.50
2019-05-26T08:27:44.443Z,46.10
2019-05-26T08:30:13.661Z,45.90
2019-05-26T08:32:43.093Z,45.70
2019-05-26T08:35:12.127Z,46.50
2019-05-26T08:37:40.810Z,46.80
2019-05-26T08:40:19.313Z,46.30
2019-05-26T08:42:49.554Z,46.40
2019-05-26T08:45:21.894Z,46.60
2019-05-26T08:47:49.678Z,46.30
2019-05-26T08:50:19.587Z,46.10
2019-05-26T08:52:48.616Z,46.10
2019-05-26T08:55:17.804Z,45.00
2019-05-26T08:57:46.617Z,44.60
2019-05-26T09:00:18.560Z,43.50
2019-05-26T09:02:47.442Z,42.60
2019-05-26T09:05:16.844Z,43.00
2019-05-26T09:07:45.593Z,42.60
2019-05-26T09:10:14.644Z,43.00
2019-05-26T09:12:43.553Z,42.00
2019-05-26T09:15:13.480Z,42.90
2019-05-26T09:17:42.314Z,42.10
2019-05-26T09:20:12.635Z,41.30
2019-05-26T09:22:41.373Z,40.40
2019-05-26T09:25:10.476Z,39.60
2019-05-26T09:27:39.255Z,39.70
2019-05-26T09:30:08.494Z,39.00
2019-05-26T09:32:37.299Z,38.30
2019-05-26T09:35:06.791Z,40.50
2019-05-26T09:37:35.702Z,41.80
2019-05-26T09:40:05.594Z,42.50
2019-05-26T09:42:34.654Z,43.70
2019-05-26T09:45:03.946Z,43.70
2019-05-26T09:47:32.717Z,44.30
2019-05-26T09:50:01.525Z,44.50
2019-05-26T09:52:30.354Z,44.90
2019-05-26T09:54:59.181Z,44.30
2019-05-26T09:57:28.160Z,44.30
2019-05-26T09:59:57.155Z,43.30
2019-05-26T10:02:25.955Z,43.60
2019-05-26T10:04:54.819Z,44.00
2019-05-26T10:07:23.602Z,44.40
2019-05-26T10:09:52.659Z,44.40
2019-05-26T10:12:21.358Z,44.10
2019-05-26T10:14:50.572Z,45.20
2019-05-26T10:17:22.527Z,46.30
2019-05-26T10:19:49.767Z,46.40
2019-05-26T10:22:18.691Z,46.40
2019-05-26T10:24:47.396Z,45.40
2019-05-26T10:27:16.116Z,45.40
2019-05-26T10:29:45.084Z,45.10
2019-05-26T10:32:16.802Z,46.30
2019-05-26T10:34:45.592Z,46.50
2019-05-26T10:37:14.329Z,47.20
2019-05-26T10:39:45.241Z,47.70
2019-05-26T10:42:14.839Z,47.50
2019-05-26T10:44:43.623Z,46.60
2019-05-26T10:47:12.729Z,46.40
2019-05-26T10:49:41.946Z,46.60
2019-05-26T10:52:10.715Z,46.70
2019-05-26T10:54:39.682Z,46.80
2019-05-26T10:57:08.432Z,46.90
2019-05-26T10:59:37.378Z,46.80
2019-05-26T11:02:06.245Z,47.10
2019-05-26T11:04:35.122Z,46.40
2019-05-26T11:07:03.869Z,46.10
2019-05-26T11:09:32.786Z,46.10
2019-05-26T11:12:01.978Z,45.40
2019-05-26T11:14:30.931Z,45.00
2019-05-26T11:16:59.804Z,45.00
2019-05-26T11:19:28.776Z,44.70
2019-05-26T11:21:57.677Z,45.20
2019-05-26T11:24:26.974Z,45.60
2019-05-26T11:27:06.379Z,45.50
2019-05-26T11:29:26.215Z,45.30
2019-05-26T11:31:55.386Z,45.60
2019-05-26T11:34:24.163Z,45.10
2019-05-26T11:36:53.215Z,45.40
2019-05-26T11:39:22.231Z,46.10
2019-05-26T11:41:54.800Z,46.10
2019-05-26T11:44:21.639Z,46.00
2019-05-26T11:46:50.354Z,45.20
2019-05-26T11:49:19.187Z,45.80
2019-05-26T11:51:47.920Z,44.70
2019-05-26T11:54:16.985Z,44.80
2019-05-26T11:56:46.202Z,45.40
2019-05-26T11:59:15.162Z,45.00
2019-05-26T12:01:43.894Z,45.50
2019-05-26T12:04:12.564Z,45.70
2019-05-26T12:06:41.441Z,46.10
2019-05-26T12:09:10.547Z,46.10
2019-05-26T12:11:39.456Z,45.70
2019-05-26T12:14:08.205Z,45.80
2019-05-26T12:16:37.031Z,45.40
2019-05-26T12:19:05.855Z,45.50
2019-05-26T12:21:34.519Z,45.20
2019-05-26T12:24:03.455Z,44.90
2019-05-26T12:26:32.547Z,45.00
2019-05-26T12:29:01.470Z,44.70
2019-05-26T12:31:30.195Z,44.70
2019-05-26T12:33:59.353Z,44.40
2019-05-26T12:36:28.026Z,44.40
2019-05-26T12:38:57.352Z,45.00
2019-05-26T12:41:26.358Z,44.70
2019-05-26T12:43:55.559Z,45.40
2019-05-26T12:46:24.347Z,45.30
2019-05-26T12:48:53.042Z,45.30
2019-05-26T12:51:21.763Z,45.80
2019-05-26T12:53:50.826Z,45.20
2019-05-26T12:56:19.611Z,45.40
2019-05-26T12:58:48.326Z,46.10
2019-05-26T13:01:17.158Z,45.50
2019-05-26T13:03:45.840Z,45.20
2019-05-26T13:06:17.595Z,45.60
2019-05-26T13:08:45.229Z,45.60
2019-05-26T13:11:14.569Z,44.60
2019-05-26T13:13:43.366Z,43.70
2019-05-26T13:16:12.206Z,43.90
2019-05-26T13:18:41.314Z,44.80
2019-05-26T13:21:10.197Z,44.50
2019-05-26T13:23:39.176Z,44.40
2019-05-26T13:26:08.178Z,44.80
2019-05-26T13:28:37.444Z,44.80
2019-05-26T13:31:06.415Z,44.60
2019-05-26T13:33:35.315Z,44.70
2019-05-26T13:36:05.153Z,45.00
2019-05-26T13:38:34.028Z,44.40
2019-05-26T13:41:03.438Z,44.30
2019-05-26T13:43:32.181Z,44.30
2019-05-26T13:46:01.762Z,45.00
2019-05-26T13:48:34.020Z,44.90
2019-05-26T13:51:03.007Z,45.00
2019-05-26T13:53:31.723Z,44.00
2019-05-26T13:56:00.404Z,44.00
2019-05-26T13:58:29.084Z,43.60
2019-05-26T14:00:57.766Z,43.30
2019-05-26T14:03:26.436Z,43.20
2019-05-26T14:05:55.172Z,43.20
2019-05-26T14:08:23.869Z,43.60
2019-05-26T14:10:52.539Z,43.80
2019-05-26T14:13:21.695Z,43.70
2019-05-26T14:15:50.807Z,43.80
2019-05-26T14:18:20.553Z,43.60
2019-05-26T14:20:49.455Z,43.70
2019-05-26T14:23:18.466Z,43.70
2019-05-26T14:25:47.370Z,44.00
2019-05-26T14:28:16.051Z,44.20
2019-05-26T14:30:45.162Z,44.50
2019-05-26T14:33:13.828Z,44.10
2019-05-26T14:35:42.512Z,44.30
2019-05-26T14:38:11.769Z,44.10
2019-05-26T14:40:40.580Z,44.20
2019-05-26T14:43:09.314Z,44.40
2019-05-26T14:45:52.251Z,44.90
2019-05-26T14:48:08.710Z,44.50
2019-05-26T14:50:40.449Z,44.90
2019-05-26T14:53:08.156Z,44.40
2019-05-26T14:55:37.068Z,44.50
2019-05-26T14:58:14.825Z,44.70
2019-05-26T15:00:36.563Z,45.10
2019-05-26T15:03:05.303Z,44.70
2019-05-26T15:05:33.979Z,45.20
2019-05-26T15:08:02.757Z,45.10
2019-05-26T15:10:31.648Z,45.00
2019-05-26T15:13:00.393Z,45.20
2019-05-26T15:15:29.158Z,46.00
2019-05-26T15:17:57.898Z,46.20
2019-05-26T15:20:26.648Z,45.70
2019-05-26T15:22:55.643Z,45.80
2019-05-26T15:25:24.812Z,46.00
2019-05-26T15:27:53.509Z,46.30
2019-05-26T15:30:23.859Z,46.50
2019-05-26T15:32:54.738Z,46.60
2019-05-26T15:35:23.398Z,47.80
2019-05-26T15:37:52.088Z,48.00
2019-05-26T15:40:20.901Z,48.40
2019-05-26T15:42:49.915Z,48.70
2019-05-26T15:45:19.223Z,49.00
2019-05-26T15:47:47.942Z,49.00
2019-05-26T15:50:16.823Z,48.90
2019-05-26T15:52:45.615Z,48.80
2019-05-26T15:55:14.633Z,48.90
2019-05-26T15:57:43.340Z,49.00
2019-05-26T16:00:14.069Z,49.00
2019-05-26T16:02:42.827Z,49.40
2019-05-26T16:05:15.257Z,50.00
2019-05-26T16:07:44.464Z,50.20
2019-05-26T16:10:13.235Z,50.50
2019-05-26T16:12:41.985Z,50.30
2019-05-26T16:15:11.648Z,50.90
2019-05-26T16:17:40.343Z,51.20
2019-05-26T16:20:09.583Z,51.20
2019-05-26T16:22:38.542Z,51.40
2019-05-26T16:25:08.322Z,51.30
2019-05-26T16:27:37.192Z,51.20
2019-05-26T16:30:06.643Z,51.30
2019-05-26T16:32:35.554Z,51.10
2019-05-26T16:35:05.722Z,51.20
2019-05-26T16:37:34.520Z,51.40
2019-05-26T16:40:03.495Z,51.30
2019-05-26T16:42:32.249Z,51.00
2019-05-26T16:45:01.022Z,51.00
2019-05-26T16:47:29.946Z,50.80
2019-05-26T16:49:58.642Z,50.70
2019-05-26T16:52:27.416Z,50.50
2019-05-26T16:54:56.166Z,50.60
2019-05-26T16:57:24.982Z,50.90
2019-05-26T16:59:53.787Z,50.90
2019-05-26T17:02:22.722Z,51.20
2019-05-26T17:04:51.687Z,51.40
2019-05-26T17:07:23.665Z,51.40
2019-05-26T17:09:52.918Z,51.40
2019-05-26T17:12:26.475Z,51.40
2019-05-26T17:14:55.574Z,51.90
2019-05-26T17:17:24.268Z,51.80
2019-05-26T17:19:53.091Z,51.80
2019-05-26T17:22:22.309Z,52.40
2019-05-26T17:24:51.276Z,52.70
2019-05-26T17:27:19.964Z,53.20
2019-05-26T17:29:48.667Z,53.30
2019-05-26T17:32:17.436Z,53.70
2019-05-26T17:34:46.274Z,53.90
2019-05-26T17:37:15.325Z,54.00
2019-05-26T17:39:44.473Z,54.20
2019-05-26T17:42:16.865Z,54.30
2019-05-26T17:44:45.729Z,54.70
2019-05-26T17:47:28.846Z,54.60
2019-05-26T17:49:44.796Z,54.80
2019-05-26T17:52:15.313Z,55.20
2019-05-26T17:54:43.995Z,55.00
2019-05-26T17:57:12.722Z,55.20
2019-05-26T17:59:41.674Z,55.30
2019-05-26T18:02:11.044Z,55.30
2019-05-26T18:04:40.746Z,55.40
2019-05-26T18:07:09.730Z,55.50
2019-05-26T18:09:44.392Z,55.70
2019-05-26T18:12:09.221Z,56.00
2019-05-26T18:14:37.957Z,55.90
2019-05-26T18:17:06.686Z,56.00
2019-05-26T18:19:35.376Z,55.90
2019-05-26T18:22:04.234Z,56.20
2019-05-26T18:24:32.967Z,56.40
2019-05-26T18:27:01.883Z,56.60
2019-05-26T18:29:30.711Z,56.90
2019-05-26T18:31:59.581Z,56.50
2019-05-26T18:34:28.325Z,56.80
2019-05-26T18:36:57.200Z,56.90
2019-05-26T18:39:26.000Z,57.30
2019-05-26T18:41:54.727Z,57.50
2019-05-26T18:44:23.894Z,57.40
2019-05-26T18:46:53.717Z,58.00
2019-05-26T18:49:22.608Z,57.60
2019-05-26T18:51:51.302Z,57.80
2019-05-26T18:54:20.059Z,57.90
2019-05-26T18:56:48.876Z,58.20
2019-05-26T18:59:17.890Z,58.40
2019-05-26T19:01:47.038Z,58.30
2019-05-26T19:04:16.439Z,58.50
2019-05-26T19:06:45.405Z,58.60
2019-05-26T19:09:14.104Z,58.60
2019-05-26T19:11:42.805Z,58.70
2019-05-26T19:14:11.599Z,58.80
2019-05-26T19:16:40.286Z,58.90
2019-05-26T19:19:09.268Z,59.00
2019-05-26T19:21:38.079Z,59.20
2019-05-26T19:24:06.892Z,59.20
2019-05-26T19:26:35.665Z,59.40
2019-05-26T19:29:05.010Z,59.40
2019-05-26T19:31:33.715Z,59.90
2019-05-26T19:34:02.397Z,59.80
2019-05-26T19:36:31.169Z,59.80
2019-05-26T19:39:00.336Z,60.00
2019-05-26T19:41:29.436Z,59.90
2019-05-26T19:43:58.273Z,60.00
2019-05-26T19:46:26.957Z,60.10
2019-05-26T19:48:55.695Z,60.00
2019-05-26T19:51:24.486Z,60.20
2019-05-26T19:53:53.194Z,60.30
2019-05-26T19:56:22.014Z,60.30
2019-05-26T19:58:51.055Z,60.30
2019-05-26T20:01:19.751Z,60.40
2019-05-26T20:03:48.625Z,60.10
2019-05-26T20:06:17.388Z,60.20
2019-05-26T20:08:46.189Z,60.20
2019-05-26T20:11:16.410Z,60.50
2019-05-26T20:13:45.243Z,60.30
2019-05-26T20:16:14.002Z,60.50
2019-05-26T20:18:42.710Z,60.40
2019-05-26T20:21:15.667Z,60.80
2019-05-26T20:23:44.924Z,60.80
2019-05-26T20:26:13.579Z,61.00
2019-05-26T20:28:42.563Z,61.50
2019-05-26T20:31:11.362Z,61.60
2019-05-26T20:33:40.021Z,61.80
2019-05-26T20:36:08.923Z,61.80
2019-05-26T20:38:37.726Z,62.00
2019-05-26T20:41:06.444Z,62.20
2019-05-26T20:43:35.298Z,62.10
2019-05-26T20:46:04.608Z,62.50
2019-05-26T20:48:33.784Z,62.40
2019-05-26T20:51:02.666Z,63.10
2019-05-26T20:53:31.346Z,63.00
2019-05-26T20:56:00.034Z,63.20
2019-05-26T20:58:28.954Z,63.40
2019-05-26T21:00:57.921Z,64.30
2019-05-26T21:03:26.674Z,64.00
2019-05-26T21:05:55.613Z,63.30
2019-05-26T21:08:24.272Z,63.40
2019-05-26T21:10:53.161Z,63.30
2019-05-26T21:13:22.150Z,63.30
2019-05-26T21:15:51.210Z,63.40
2019-05-26T21:18:19.934Z,64.20
2019-05-26T21:20:48.714Z,63.60
2019-05-26T21:23:17.374Z,63.50
2019-05-26T21:25:46.044Z,63.70
2019-05-26T21:28:15.027Z,63.70
2019-05-26T21:30:43.831Z,63.80
2019-05-26T21:33:12.509Z,64.00
2019-05-26T21:35:41.268Z,64.20
2019-05-26T21:38:09.992Z,63.90
2019-05-26T21:40:38.970Z,64.40
2019-05-26T21:43:07.752Z,64.30
2019-05-26T21:45:37.582Z,64.40
2019-05-26T21:48:06.606Z,64.40
2019-05-26T21:50:35.334Z,64.50
2019-05-26T21:53:04.233Z,64.70
2019-05-26T21:55:32.917Z,64.60
2019-05-26T21:58:01.955Z,65.30
2019-05-26T22:00:37.394Z,65.30
2019-05-26T22:03:06.391Z,65.60
2019-05-26T22:05:35.202Z,65.70
2019-05-26T22:08:03.942Z,66.00
2019-05-26T22:10:32.603Z,66.20
2019-05-26T22:13:01.383Z,66.30
2019-05-26T22:15:30.069Z,66.30
2019-05-26T22:17:58.986Z,66.30
2019-05-26T22:20:27.801Z,66.80
2019-05-26T22:22:56.740Z,66.70
2019-05-26T22:25:25.411Z,66.90
2019-05-26T22:27:54.202Z,67.30
2019-05-26T22:30:23.715Z,67.20
2019-05-26T22:32:52.792Z,67.30
2019-05-26T22:35:22.055Z,67.80
2019-05-26T22:37:50.787Z,67.80
2019-05-26T22:40:19.721Z,67.80
2019-05-26T22:42:49.104Z,68.00
2019-05-26T22:45:17.978Z,67.90
2019-05-26T22:47:46.955Z,68.00
2019-05-26T22:50:16.254Z,67.90
2019-05-26T22:52:45.163Z,68.00
2019-05-26T22:55:14.571Z,68.00
2019-05-26T22:57:43.363Z,68.10
2019-05-26T23:00:14.285Z,68.10
2019-05-26T23:02:43.031Z,68.50
2019-05-26T23:05:12.230Z,68.40
2019-05-26T23:07:41.451Z,68.30
2019-05-26T23:10:11.560Z,68.50
2019-05-26T23:12:40.314Z,68.40
2019-05-26T23:15:09.751Z,68.40
2019-05-26T23:17:38.530Z,68.70
2019-05-26T23:20:07.920Z,68.50
2019-05-26T23:22:36.886Z,68.40
2019-05-26T23:25:06.502Z,68.30
2019-05-26T23:27:35.387Z,68.20
2019-05-26T23:30:04.498Z,69.20
2019-05-26T23:32:33.192Z,68.30
2019-05-26T23:35:02.118Z,68.60
2019-05-26T23:37:30.956Z,68.40
2019-05-26T23:39:59.932Z,68.50
2019-05-26T23:42:28.765Z,69.00
2019-05-26T23:44:57.446Z,68.90
2019-05-26T23:47:26.541Z,68.90
2019-05-26T23:49:56.313Z,68.80
2019-05-26T23:52:25.585Z,69.20
2019-05-26T23:54:55.514Z,69.10
2019-05-26T23:57:24.573Z,69.00
2019-05-26T23:59:53.502Z,69.10
